sensor_id;sensor_type;location;lat;lon;timestamp;temperature;humidity
22114;DHT22;11223;49.968;9.062;2022-09-12T00:02:22;13.00;99.90
22114;DHT22;11223;49.968;9.062;2022-09-12T00:04:47;12.90;99.90
22114;DHT22;11223;49.968;9.062;2022-09-12T00:07:13;12.90;99.90
22114;DHT22;11223;49.968;9.062;2022-09-12T00:09:38;12.90;99.90
22114;DHT22;11223;49.968;9.062;2022-09-12T00:12:04;12.80;99.90
22114;DHT22;11223;49.968;9.062;2022-09-12T00:14:30;12.80;99.90
22114;DHT22;11223;49.968;9.062;2022-09-12T00:16:57;12.80;99.90
22114;DHT22;11223;49.968;9.062;2022-09-12T00:19:24;12.80;99.90
22114;DHT22;11223;49.968;9.062;2022-09-12T00:21:50;12.80;99.90
22114;DHT22;11223;49.968;9.062;2022-09-12T00:24:16;12.80;99.90
22114;DHT22;11223;49.968;9.062;2022-09-12T00:26:41;12.80;99.90
22114;DHT22;11223;49.968;9.062;2022-09-12T00:29:07;12.80;99.90
22114;DHT22;11223;49.968;9.062;2022-09-12T00:31:33;12.80;99.90
22114;DHT22;11223;49.968;9.062;2022-09-12T00:33:59;12.80;99.90
22114;DHT22;11223;49.968;9.062;2022-09-12T00:36:27;12.70;99.90
22114;DHT22;11223;49.968;9.062;2022-09-12T00:38:53;12.80;99.90
22114;DHT22;11223;49.968;9.062;2022-09-12T00:41:22;12.70;99.90
22114;DHT22;11223;49.968;9.062;2022-09-12T00:43:51;12.70;99.90
22114;DHT22;11223;49.968;9.062;2022-09-12T00:49:14;12.70;99.90
22114;DHT22;11223;49.968;9.062;2022-09-12T00:51:48;12.60;99.90
22114;DHT22;11223;49.968;9.062;2022-09-12T00:54:19;12.60;99.90
22114;DHT22;11223;49.968;9.062;2022-09-12T00:56:48;12.60;99.90
22114;DHT22;11223;49.968;9.062;2022-09-12T00:59:23;12.60;99.90
22114;DHT22;11223;49.968;9.062;2022-09-12T01:01:50;12.60;99.90
22114;DHT22;11223;49.968;9.062;2022-09-12T01:04:19;12.50;99.90
22114;DHT22;11223;49.968;9.062;2022-09-12T01:06:47;12.50;99.90
22114;DHT22;11223;49.968;9.062;2022-09-12T01:09:16;12.50;99.90
22114;DHT22;11223;49.968;9.062;2022-09-12T01:11:44;12.50;99.90
22114;DHT22;11223;49.968;9.062;2022-09-12T01:14:11;12.50;99.90
22114;DHT22;11223;49.968;9.062;2022-09-12T01:16:38;12.50;99.90
22114;DHT22;11223;49.968;9.062;2022-09-12T01:22:27;12.50;99.90
22114;DHT22;11223;49.968;9.062;2022-09-12T01:27:49;12.60;99.90
22114;DHT22;11223;49.968;9.062;2022-09-12T01:33:08;12.50;99.90
22114;DHT22;11223;49.968;9.062;2022-09-12T01:38:57;12.40;99.90
22114;DHT22;11223;49.968;9.062;2022-09-12T01:41:53;12.40;99.90
22114;DHT22;11223;49.968;9.062;2022-09-12T01:47:15;12.30;99.90
22114;DHT22;11223;49.968;9.062;2022-09-12T01:55:18;12.20;99.90
22114;DHT22;11223;49.968;9.062;2022-09-12T01:58:13;12.20;99.90
22114;DHT22;11223;49.968;9.062;2022-09-12T02:00:59;12.20;99.90
22114;DHT22;11223;49.968;9.062;2022-09-12T02:03:30;12.20;99.90
22114;DHT22;11223;49.968;9.062;2022-09-12T02:06:43;12.20;99.90
22114;DHT22;11223;49.968;9.062;2022-09-12T02:08:57;12.10;99.90
22114;DHT22;11223;49.968;9.062;2022-09-12T02:11:24;12.10;99.90
22114;DHT22;11223;49.968;9.062;2022-09-12T02:13:56;12.10;99.90
22114;DHT22;11223;49.968;9.062;2022-09-12T02:19:00;12.10;99.90
22114;DHT22;11223;49.968;9.062;2022-09-12T02:21:29;12.00;99.90
22114;DHT22;11223;49.968;9.062;2022-09-12T02:24:00;12.00;99.90
22114;DHT22;11223;49.968;9.062;2022-09-12T02:26:49;12.00;99.90
22114;DHT22;11223;49.968;9.062;2022-09-12T02:29:17;12.00;99.90
22114;DHT22;11223;49.968;9.062;2022-09-12T02:31:52;12.00;99.90
22114;DHT22;11223;49.968;9.062;2022-09-12T02:37:38;11.90;99.90
22114;DHT22;11223;49.968;9.062;2022-09-12T02:40:07;11.90;99.90
22114;DHT22;11223;49.968;9.062;2022-09-12T02:42:35;11.90;99.90
22114;DHT22;11223;49.968;9.062;2022-09-12T02:45:01;11.90;99.90
22114;DHT22;11223;49.968;9.062;2022-09-12T02:47:35;11.90;99.90
22114;DHT22;11223;49.968;9.062;2022-09-12T02:50:02;11.90;99.90
22114;DHT22;11223;49.968;9.062;2022-09-12T02:52:30;11.90;99.90
22114;DHT22;11223;49.968;9.062;2022-09-12T02:54:57;11.90;99.90
22114;DHT22;11223;49.968;9.062;2022-09-12T02:57:23;11.90;99.90
22114;DHT22;11223;49.968;9.062;2022-09-12T02:59:51;11.90;99.90
22114;DHT22;11223;49.968;9.062;2022-09-12T03:05:04;11.80;99.90
22114;DHT22;11223;49.968;9.062;2022-09-12T03:10:24;11.80;99.90
22114;DHT22;11223;49.968;9.062;2022-09-12T03:18:31;11.90;99.90
22114;DHT22;11223;49.968;9.062;2022-09-12T03:21:01;11.80;99.90
22114;DHT22;11223;49.968;9.062;2022-09-12T03:24:03;11.80;99.90
22114;DHT22;11223;49.968;9.062;2022-09-12T03:29:07;11.70;99.90
22114;DHT22;11223;49.968;9.062;2022-09-12T03:31:35;11.70;99.90
22114;DHT22;11223;49.968;9.062;2022-09-12T03:34:01;11.70;99.90
22114;DHT22;11223;49.968;9.062;2022-09-12T03:36:28;11.70;99.90
22114;DHT22;11223;49.968;9.062;2022-09-12T03:38:54;11.70;99.90
22114;DHT22;11223;49.968;9.062;2022-09-12T03:41:20;11.60;99.90
22114;DHT22;11223;49.968;9.062;2022-09-12T03:43:46;11.60;99.90
22114;DHT22;11223;49.968;9.062;2022-09-12T03:46:12;11.60;99.90
22114;DHT22;11223;49.968;9.062;2022-09-12T03:48:38;11.70;99.90
22114;DHT22;11223;49.968;9.062;2022-09-12T03:51:06;11.70;99.90
22114;DHT22;11223;49.968;9.062;2022-09-12T03:53:32;11.70;99.90
22114;DHT22;11223;49.968;9.062;2022-09-12T03:55:58;11.70;99.90
22114;DHT22;11223;49.968;9.062;2022-09-12T03:58:28;11.80;99.90
22114;DHT22;11223;49.968;9.062;2022-09-12T04:00:54;11.80;99.90
22114;DHT22;11223;49.968;9.062;2022-09-12T04:03:19;11.80;99.90
22114;DHT22;11223;49.968;9.062;2022-09-12T04:05:45;11.80;99.90
22114;DHT22;11223;49.968;9.062;2022-09-12T04:08:12;11.80;99.90
22114;DHT22;11223;49.968;9.062;2022-09-12T04:10:38;11.80;99.90
22114;DHT22;11223;49.968;9.062;2022-09-12T04:13:03;11.90;99.90
22114;DHT22;11223;49.968;9.062;2022-09-12T04:15:29;11.90;99.90
22114;DHT22;11223;49.968;9.062;2022-09-12T04:17:54;11.90;99.90
22114;DHT22;11223;49.968;9.062;2022-09-12T04:20:20;12.00;99.90
22114;DHT22;11223;49.968;9.062;2022-09-12T04:22:45;12.00;99.90
22114;DHT22;11223;49.968;9.062;2022-09-12T04:25:11;12.00;99.90
22114;DHT22;11223;49.968;9.062;2022-09-12T04:27:37;12.00;99.90
22114;DHT22;11223;49.968;9.062;2022-09-12T04:30:04;12.00;99.90
22114;DHT22;11223;49.968;9.062;2022-09-12T04:32:30;12.00;99.90
22114;DHT22;11223;49.968;9.062;2022-09-12T04:34:56;12.00;99.90
22114;DHT22;11223;49.968;9.062;2022-09-12T04:37:22;12.00;99.90
22114;DHT22;11223;49.968;9.062;2022-09-12T04:39:48;12.00;99.90
22114;DHT22;11223;49.968;9.062;2022-09-12T04:42:15;11.90;99.90
22114;DHT22;11223;49.968;9.062;2022-09-12T04:44:40;11.90;99.90
22114;DHT22;11223;49.968;9.062;2022-09-12T04:47:06;11.90;99.90
22114;DHT22;11223;49.968;9.062;2022-09-12T04:49:32;11.80;99.90
22114;DHT22;11223;49.968;9.062;2022-09-12T04:51:58;11.80;99.90
22114;DHT22;11223;49.968;9.062;2022-09-12T04:54:24;11.80;99.90
22114;DHT22;11223;49.968;9.062;2022-09-12T04:56:50;11.80;99.90
22114;DHT22;11223;49.968;9.062;2022-09-12T04:59:18;11.70;99.90
22114;DHT22;11223;49.968;9.062;2022-09-12T05:01:45;11.70;99.90
22114;DHT22;11223;49.968;9.062;2022-09-12T05:04:11;11.70;99.90
22114;DHT22;11223;49.968;9.062;2022-09-12T05:06:41;11.70;99.90
22114;DHT22;11223;49.968;9.062;2022-09-12T05:09:09;11.70;99.90
22114;DHT22;11223;49.968;9.062;2022-09-12T05:11:38;11.60;99.90
22114;DHT22;11223;49.968;9.062;2022-09-12T05:14:04;11.60;99.90
22114;DHT22;11223;49.968;9.062;2022-09-12T05:16:31;11.70;99.90
22114;DHT22;11223;49.968;9.062;2022-09-12T05:18:57;11.70;99.90
22114;DHT22;11223;49.968;9.062;2022-09-12T05:21:24;11.70;99.90
22114;DHT22;11223;49.968;9.062;2022-09-12T05:23:55;11.80;99.90
22114;DHT22;11223;49.968;9.062;2022-09-12T05:26:22;11.80;99.90
22114;DHT22;11223;49.968;9.062;2022-09-12T05:28:49;11.80;99.90
22114;DHT22;11223;49.968;9.062;2022-09-12T05:33:42;11.80;99.90
22114;DHT22;11223;49.968;9.062;2022-09-12T05:36:18;11.90;99.90
22114;DHT22;11223;49.968;9.062;2022-09-12T05:38:45;11.90;99.90
22114;DHT22;11223;49.968;9.062;2022-09-12T05:41:14;11.90;99.90
22114;DHT22;11223;49.968;9.062;2022-09-12T05:43:41;11.90;99.90
22114;DHT22;11223;49.968;9.062;2022-09-12T05:46:10;11.90;99.90
22114;DHT22;11223;49.968;9.062;2022-09-12T05:48:37;11.90;99.90
22114;DHT22;11223;49.968;9.062;2022-09-12T05:51:07;12.00;99.90
22114;DHT22;11223;49.968;9.062;2022-09-12T05:53:34;11.90;99.90
22114;DHT22;11223;49.968;9.062;2022-09-12T05:56:11;12.00;99.90
22114;DHT22;11223;49.968;9.062;2022-09-12T05:58:41;12.00;99.90
22114;DHT22;11223;49.968;9.062;2022-09-12T06:01:08;12.00;99.90
22114;DHT22;11223;49.968;9.062;2022-09-12T06:03:39;12.10;99.90
22114;DHT22;11223;49.968;9.062;2022-09-12T06:06:06;12.10;99.90
22114;DHT22;11223;49.968;9.062;2022-09-12T06:08:32;12.10;99.90
22114;DHT22;11223;49.968;9.062;2022-09-12T06:11:00;12.10;99.90
22114;DHT22;11223;49.968;9.062;2022-09-12T06:13:26;12.10;99.90
22114;DHT22;11223;49.968;9.062;2022-09-12T06:15:52;12.20;99.90
22114;DHT22;11223;49.968;9.062;2022-09-12T06:18:18;12.20;99.90
22114;DHT22;11223;49.968;9.062;2022-09-12T06:20:45;12.30;99.90
22114;DHT22;11223;49.968;9.062;2022-09-12T06:23:11;12.30;99.90
22114;DHT22;11223;49.968;9.062;2022-09-12T06:25:37;12.40;99.90
22114;DHT22;11223;49.968;9.062;2022-09-12T06:28:02;12.40;99.90
22114;DHT22;11223;49.968;9.062;2022-09-12T06:30:28;12.40;99.90
22114;DHT22;11223;49.968;9.062;2022-09-12T06:32:54;12.40;99.90
22114;DHT22;11223;49.968;9.062;2022-09-12T06:35:21;12.50;99.90
22114;DHT22;11223;49.968;9.062;2022-09-12T06:37:48;12.50;99.90
22114;DHT22;11223;49.968;9.062;2022-09-12T06:40:13;12.50;99.90
22114;DHT22;11223;49.968;9.062;2022-09-12T06:42:39;12.50;99.90
22114;DHT22;11223;49.968;9.062;2022-09-12T06:45:05;12.60;99.90
22114;DHT22;11223;49.968;9.062;2022-09-12T06:47:31;12.60;99.90
22114;DHT22;11223;49.968;9.062;2022-09-12T06:49:57;12.70;99.90
22114;DHT22;11223;49.968;9.062;2022-09-12T06:52:22;12.80;99.90
22114;DHT22;11223;49.968;9.062;2022-09-12T06:54:48;12.90;99.90
22114;DHT22;11223;49.968;9.062;2022-09-12T06:57:13;12.90;99.90
22114;DHT22;11223;49.968;9.062;2022-09-12T06:59:39;13.00;99.90
22114;DHT22;11223;49.968;9.062;2022-09-12T07:02:05;13.10;99.90
22114;DHT22;11223;49.968;9.062;2022-09-12T07:04:30;13.10;99.90
22114;DHT22;11223;49.968;9.062;2022-09-12T07:06:58;13.20;99.90
22114;DHT22;11223;49.968;9.062;2022-09-12T07:09:23;13.30;99.90
22114;DHT22;11223;49.968;9.062;2022-09-12T07:11:50;13.40;99.90
22114;DHT22;11223;49.968;9.062;2022-09-12T07:14:16;13.40;99.90
22114;DHT22;11223;49.968;9.062;2022-09-12T07:16:41;13.50;99.90
22114;DHT22;11223;49.968;9.062;2022-09-12T07:19:08;13.60;99.90
22114;DHT22;11223;49.968;9.062;2022-09-12T07:21:34;13.70;99.90
22114;DHT22;11223;49.968;9.062;2022-09-12T07:24:07;13.80;99.90
22114;DHT22;11223;49.968;9.062;2022-09-12T07:26:34;14.00;99.90
22114;DHT22;11223;49.968;9.062;2022-09-12T07:28:59;14.00;99.90
22114;DHT22;11223;49.968;9.062;2022-09-12T07:31:26;14.10;99.90
22114;DHT22;11223;49.968;9.062;2022-09-12T07:33:52;14.10;99.90
22114;DHT22;11223;49.968;9.062;2022-09-12T07:36:20;14.20;99.90
22114;DHT22;11223;49.968;9.062;2022-09-12T07:38:47;14.30;99.90
22114;DHT22;11223;49.968;9.062;2022-09-12T07:41:20;14.50;99.90
22114;DHT22;11223;49.968;9.062;2022-09-12T07:43:46;14.60;99.90
22114;DHT22;11223;49.968;9.062;2022-09-12T07:46:13;14.80;99.90
22114;DHT22;11223;49.968;9.062;2022-09-12T07:48:39;15.00;99.90
22114;DHT22;11223;49.968;9.062;2022-09-12T07:51:07;15.30;99.90
22114;DHT22;11223;49.968;9.062;2022-09-12T07:53:36;15.50;99.90
22114;DHT22;11223;49.968;9.062;2022-09-12T07:56:03;15.80;99.90
22114;DHT22;11223;49.968;9.062;2022-09-12T07:58:31;16.00;99.90
22114;DHT22;11223;49.968;9.062;2022-09-12T08:01:17;16.20;99.90
22114;DHT22;11223;49.968;9.062;2022-09-12T08:03:45;16.40;99.90
22114;DHT22;11223;49.968;9.062;2022-09-12T08:06:15;16.60;99.90
22114;DHT22;11223;49.968;9.062;2022-09-12T08:08:41;16.60;99.90
22114;DHT22;11223;49.968;9.062;2022-09-12T08:11:09;16.70;99.90
22114;DHT22;11223;49.968;9.062;2022-09-12T08:13:36;16.90;99.90
22114;DHT22;11223;49.968;9.062;2022-09-12T08:16:05;17.00;99.90
22114;DHT22;11223;49.968;9.062;2022-09-12T08:18:31;17.10;99.90
22114;DHT22;11223;49.968;9.062;2022-09-12T08:20:58;17.30;99.90
22114;DHT22;11223;49.968;9.062;2022-09-12T08:23:24;17.50;99.90
22114;DHT22;11223;49.968;9.062;2022-09-12T08:25:51;17.60;99.90
22114;DHT22;11223;49.968;9.062;2022-09-12T08:28:19;17.90;99.90
22114;DHT22;11223;49.968;9.062;2022-09-12T08:30:44;18.00;99.90
22114;DHT22;11223;49.968;9.062;2022-09-12T08:33:10;18.20;99.90
22114;DHT22;11223;49.968;9.062;2022-09-12T08:35:36;18.40;99.90
22114;DHT22;11223;49.968;9.062;2022-09-12T08:38:01;18.50;99.90
22114;DHT22;11223;49.968;9.062;2022-09-12T08:40:27;18.60;99.90
22114;DHT22;11223;49.968;9.062;2022-09-12T08:42:58;18.80;99.90
22114;DHT22;11223;49.968;9.062;2022-09-12T08:45:37;19.00;99.90
22114;DHT22;11223;49.968;9.062;2022-09-12T08:48:07;19.10;99.90
22114;DHT22;11223;49.968;9.062;2022-09-12T08:50:34;19.30;99.90
22114;DHT22;11223;49.968;9.062;2022-09-12T08:53:13;19.40;99.90
22114;DHT22;11223;49.968;9.062;2022-09-12T08:55:49;19.50;99.90
22114;DHT22;11223;49.968;9.062;2022-09-12T08:58:22;19.70;99.90
22114;DHT22;11223;49.968;9.062;2022-09-12T09:11:43;20.60;99.90
22114;DHT22;11223;49.968;9.062;2022-09-12T09:14:26;20.70;99.90
22114;DHT22;11223;49.968;9.062;2022-09-12T09:19:58;20.80;99.90
22114;DHT22;11223;49.968;9.062;2022-09-12T09:25:15;20.90;99.90
22114;DHT22;11223;49.968;9.062;2022-09-12T09:27:58;21.00;99.90
22114;DHT22;11223;49.968;9.062;2022-09-12T09:30:25;21.10;99.90
22114;DHT22;11223;49.968;9.062;2022-09-12T09:32:54;21.30;99.90
22114;DHT22;11223;49.968;9.062;2022-09-12T09:35:42;21.40;99.90
22114;DHT22;11223;49.968;9.062;2022-09-12T09:38:26;21.50;99.90
22114;DHT22;11223;49.968;9.062;2022-09-12T09:43:36;21.70;99.90
22114;DHT22;11223;49.968;9.062;2022-09-12T09:46:03;21.90;99.90
22114;DHT22;11223;49.968;9.062;2022-09-12T09:48:31;21.90;99.90
22114;DHT22;11223;49.968;9.062;2022-09-12T09:50:59;22.00;99.90
22114;DHT22;11223;49.968;9.062;2022-09-12T09:56:17;22.10;99.90
22114;DHT22;11223;49.968;9.062;2022-09-12T09:58:45;22.30;99.90
22114;DHT22;11223;49.968;9.062;2022-09-12T10:01:14;22.40;99.90
22114;DHT22;11223;49.968;9.062;2022-09-12T10:06:28;22.50;99.90
22114;DHT22;11223;49.968;9.062;2022-09-12T10:09:19;22.50;99.90
22114;DHT22;11223;49.968;9.062;2022-09-12T10:11:46;22.50;99.90
22114;DHT22;11223;49.968;9.062;2022-09-12T10:16:55;22.70;99.90
22114;DHT22;11223;49.968;9.062;2022-09-12T10:19:35;22.80;99.90
22114;DHT22;11223;49.968;9.062;2022-09-12T10:22:01;22.90;99.90
22114;DHT22;11223;49.968;9.062;2022-09-12T10:24:38;23.10;99.90
22114;DHT22;11223;49.968;9.062;2022-09-12T10:29:38;23.30;99.90
22114;DHT22;11223;49.968;9.062;2022-09-12T10:32:08;23.40;99.90
22114;DHT22;11223;49.968;9.062;2022-09-12T10:34:42;23.40;99.90
22114;DHT22;11223;49.968;9.062;2022-09-12T10:37:17;23.40;99.90
22114;DHT22;11223;49.968;9.062;2022-09-12T10:39:51;23.40;99.90
22114;DHT22;11223;49.968;9.062;2022-09-12T10:42:50;23.40;99.90
22114;DHT22;11223;49.968;9.062;2022-09-12T10:45:32;23.30;99.90
22114;DHT22;11223;49.968;9.062;2022-09-12T10:48:02;23.10;99.90
22114;DHT22;11223;49.968;9.062;2022-09-12T10:50:39;23.00;99.90
22114;DHT22;11223;49.968;9.062;2022-09-12T10:55:58;23.10;99.90
22114;DHT22;11223;49.968;9.062;2022-09-12T10:58:31;23.20;99.90
22114;DHT22;11223;49.968;9.062;2022-09-12T11:01:12;23.40;99.90
22114;DHT22;11223;49.968;9.062;2022-09-12T11:03:49;23.60;99.90
22114;DHT22;11223;49.968;9.062;2022-09-12T11:06:25;23.90;99.90
22114;DHT22;11223;49.968;9.062;2022-09-12T11:09:04;24.10;99.90
22114;DHT22;11223;49.968;9.062;2022-09-12T11:11:53;24.10;99.90
22114;DHT22;11223;49.968;9.062;2022-09-12T11:14:32;24.10;99.90
22114;DHT22;11223;49.968;9.062;2022-09-12T11:20:32;24.30;99.90
22114;DHT22;11223;49.968;9.062;2022-09-12T11:39:46;24.40;97.30
22114;DHT22;11223;49.968;9.062;2022-09-12T11:42:19;24.30;96.70
22114;DHT22;11223;49.968;9.062;2022-09-12T11:45:02;24.20;99.90
22114;DHT22;11223;49.968;9.062;2022-09-12T11:47:32;24.00;99.90
22114;DHT22;11223;49.968;9.062;2022-09-12T11:50:03;23.90;99.90
22114;DHT22;11223;49.968;9.062;2022-09-12T11:52:36;23.90;99.90
22114;DHT22;11223;49.968;9.062;2022-09-12T11:55:15;23.80;99.90
22114;DHT22;11223;49.968;9.062;2022-09-12T11:57:53;23.90;99.90
22114;DHT22;11223;49.968;9.062;2022-09-12T12:00:21;24.20;98.80
22114;DHT22;11223;49.968;9.062;2022-09-12T12:08:42;24.70;95.60
22114;DHT22;11223;49.968;9.062;2022-09-12T12:11:26;24.80;93.20
22114;DHT22;11223;49.968;9.062;2022-09-12T12:14:21;25.00;93.30
22114;DHT22;11223;49.968;9.062;2022-09-12T12:16:46;25.00;93.10
22114;DHT22;11223;49.968;9.062;2022-09-12T12:21:48;25.30;93.60
22114;DHT22;11223;49.968;9.062;2022-09-12T12:24:15;25.40;92.40
22114;DHT22;11223;49.968;9.062;2022-09-12T12:27:00;25.40;91.10
22114;DHT22;11223;49.968;9.062;2022-09-12T12:29:37;25.40;90.30
22114;DHT22;11223;49.968;9.062;2022-09-12T12:34:50;25.70;89.20
22114;DHT22;11223;49.968;9.062;2022-09-12T12:40:06;25.90;87.60
22114;DHT22;11223;49.968;9.062;2022-09-12T12:47:42;25.70;88.50
22114;DHT22;11223;49.968;9.062;2022-09-12T12:52:56;25.70;89.70
22114;DHT22;11223;49.968;9.062;2022-09-12T12:55:27;25.60;84.50
22114;DHT22;11223;49.968;9.062;2022-09-12T12:57:56;25.60;83.30
22114;DHT22;11223;49.968;9.062;2022-09-12T13:03:36;25.80;85.90
22114;DHT22;11223;49.968;9.062;2022-09-12T13:06:00;25.90;87.30
22114;DHT22;11223;49.968;9.062;2022-09-12T13:08:37;26.00;90.30
22114;DHT22;11223;49.968;9.062;2022-09-12T13:11:13;25.90;88.60
22114;DHT22;11223;49.968;9.062;2022-09-12T13:13:51;25.90;87.20
22114;DHT22;11223;49.968;9.062;2022-09-12T13:16:52;26.10;86.00
22114;DHT22;11223;49.968;9.062;2022-09-12T13:19:34;26.40;85.60
22114;DHT22;11223;49.968;9.062;2022-09-12T13:24:25;26.60;83.60
22114;DHT22;11223;49.968;9.062;2022-09-12T13:26:51;26.60;82.00
22114;DHT22;11223;49.968;9.062;2022-09-12T13:29:23;26.60;81.60
22114;DHT22;11223;49.968;9.062;2022-09-12T13:31:53;26.40;80.60
22114;DHT22;11223;49.968;9.062;2022-09-12T13:34:36;26.30;82.10
22114;DHT22;11223;49.968;9.062;2022-09-12T13:43:14;25.90;84.70
22114;DHT22;11223;49.968;9.062;2022-09-12T13:45:44;25.90;81.90
22114;DHT22;11223;49.968;9.062;2022-09-12T13:48:17;25.90;81.90
22114;DHT22;11223;49.968;9.062;2022-09-12T13:51:05;25.90;81.40
22114;DHT22;11223;49.968;9.062;2022-09-12T13:53:42;25.90;82.40
22114;DHT22;11223;49.968;9.062;2022-09-12T13:56:15;25.80;84.90
22114;DHT22;11223;49.968;9.062;2022-09-12T14:01:19;25.50;85.70
22114;DHT22;11223;49.968;9.062;2022-09-12T14:06:44;25.40;87.50
22114;DHT22;11223;49.968;9.062;2022-09-12T14:09:22;25.20;86.30
22114;DHT22;11223;49.968;9.062;2022-09-12T14:11:49;25.00;88.10
22114;DHT22;11223;49.968;9.062;2022-09-12T14:16:52;24.70;90.10
22114;DHT22;11223;49.968;9.062;2022-09-12T14:19:25;24.50;89.20
22114;DHT22;11223;49.968;9.062;2022-09-12T14:21:52;24.50;90.10
22114;DHT22;11223;49.968;9.062;2022-09-12T14:24:18;24.30;91.00
22114;DHT22;11223;49.968;9.062;2022-09-12T14:26:51;24.10;91.30
22114;DHT22;11223;49.968;9.062;2022-09-12T14:29:19;23.90;91.80
22114;DHT22;11223;49.968;9.062;2022-09-12T14:31:45;23.80;91.50
22114;DHT22;11223;49.968;9.062;2022-09-12T14:34:16;23.70;91.70
22114;DHT22;11223;49.968;9.062;2022-09-12T14:36:50;23.60;92.80
22114;DHT22;11223;49.968;9.062;2022-09-12T14:39:21;23.40;93.50
22114;DHT22;11223;49.968;9.062;2022-09-12T14:41:48;23.20;94.40
22114;DHT22;11223;49.968;9.062;2022-09-12T14:44:21;23.20;95.00
22114;DHT22;11223;49.968;9.062;2022-09-12T14:46:49;23.00;95.60
22114;DHT22;11223;49.968;9.062;2022-09-12T14:49:30;22.90;96.50
22114;DHT22;11223;49.968;9.062;2022-09-12T14:51:59;22.70;97.70
22114;DHT22;11223;49.968;9.062;2022-09-12T14:56:55;22.70;94.80
22114;DHT22;11223;49.968;9.062;2022-09-12T15:04:49;22.70;95.80
22114;DHT22;11223;49.968;9.062;2022-09-12T15:07:27;22.70;96.30
22114;DHT22;11223;49.968;9.062;2022-09-12T15:09:56;22.60;97.70
22114;DHT22;11223;49.968;9.062;2022-09-12T15:12:22;22.50;98.50
22114;DHT22;11223;49.968;9.062;2022-09-12T15:14:48;22.30;99.90
22114;DHT22;11223;49.968;9.062;2022-09-12T15:17:13;22.20;99.90
22114;DHT22;11223;49.968;9.062;2022-09-12T15:19:39;22.10;99.90
22114;DHT22;11223;49.968;9.062;2022-09-12T15:22:04;22.10;99.90
22114;DHT22;11223;49.968;9.062;2022-09-12T15:24:30;22.00;99.90
22114;DHT22;11223;49.968;9.062;2022-09-12T15:26:55;22.00;99.90
22114;DHT22;11223;49.968;9.062;2022-09-12T15:29:21;21.90;99.90
22114;DHT22;11223;49.968;9.062;2022-09-12T15:31:49;21.80;99.90
22114;DHT22;11223;49.968;9.062;2022-09-12T15:34:15;21.80;99.90
22114;DHT22;11223;49.968;9.062;2022-09-12T15:36:41;21.70;99.90
22114;DHT22;11223;49.968;9.062;2022-09-12T15:39:08;21.60;99.90
22114;DHT22;11223;49.968;9.062;2022-09-12T15:41:36;21.70;99.90
22114;DHT22;11223;49.968;9.062;2022-09-12T15:44:03;21.70;99.90
22114;DHT22;11223;49.968;9.062;2022-09-12T15:46:29;21.70;99.90
22114;DHT22;11223;49.968;9.062;2022-09-12T15:48:55;21.70;99.90
22114;DHT22;11223;49.968;9.062;2022-09-12T15:51:21;21.80;98.50
22114;DHT22;11223;49.968;9.062;2022-09-12T15:53:48;21.90;99.00
22114;DHT22;11223;49.968;9.062;2022-09-12T15:56:16;22.00;99.10
22114;DHT22;11223;49.968;9.062;2022-09-12T15:58:42;21.90;99.90
22114;DHT22;11223;49.968;9.062;2022-09-12T16:01:15;21.80;99.90
22114;DHT22;11223;49.968;9.062;2022-09-12T16:03:41;21.80;99.90
22114;DHT22;11223;49.968;9.062;2022-09-12T16:06:06;21.70;99.90
22114;DHT22;11223;49.968;9.062;2022-09-12T16:08:34;21.60;99.90
22114;DHT22;11223;49.968;9.062;2022-09-12T16:11:08;21.50;99.90
22114;DHT22;11223;49.968;9.062;2022-09-12T16:13:35;21.30;99.90
22114;DHT22;11223;49.968;9.062;2022-09-12T16:16:00;21.10;99.90
22114;DHT22;11223;49.968;9.062;2022-09-12T16:18:27;21.00;99.90
22114;DHT22;11223;49.968;9.062;2022-09-12T16:20:56;20.90;99.90
22114;DHT22;11223;49.968;9.062;2022-09-12T16:23:22;20.80;99.90
22114;DHT22;11223;49.968;9.062;2022-09-12T16:26:02;20.70;99.90
22114;DHT22;11223;49.968;9.062;2022-09-12T16:28:29;20.60;99.90
22114;DHT22;11223;49.968;9.062;2022-09-12T16:30:56;20.60;99.90
22114;DHT22;11223;49.968;9.062;2022-09-12T16:33:21;20.60;99.90
22114;DHT22;11223;49.968;9.062;2022-09-12T16:35:47;20.50;99.90
22114;DHT22;11223;49.968;9.062;2022-09-12T16:38:12;20.50;99.90
22114;DHT22;11223;49.968;9.062;2022-09-12T16:40:38;20.40;99.90
22114;DHT22;11223;49.968;9.062;2022-09-12T16:43:03;20.30;99.90
22114;DHT22;11223;49.968;9.062;2022-09-12T16:45:29;20.20;99.90
22114;DHT22;11223;49.968;9.062;2022-09-12T16:47:54;20.00;99.90
22114;DHT22;11223;49.968;9.062;2022-09-12T16:50:20;19.90;99.90
22114;DHT22;11223;49.968;9.062;2022-09-12T16:52:46;19.90;99.90
22114;DHT22;11223;49.968;9.062;2022-09-12T16:55:11;19.80;99.90
22114;DHT22;11223;49.968;9.062;2022-09-12T16:57:37;19.70;99.90
22114;DHT22;11223;49.968;9.062;2022-09-12T17:00:03;19.60;99.90
22114;DHT22;11223;49.968;9.062;2022-09-12T17:02:29;19.60;99.90
22114;DHT22;11223;49.968;9.062;2022-09-12T17:04:54;19.50;99.90
22114;DHT22;11223;49.968;9.062;2022-09-12T17:07:20;19.40;99.90
22114;DHT22;11223;49.968;9.062;2022-09-12T17:09:45;19.40;99.90
22114;DHT22;11223;49.968;9.062;2022-09-12T17:12:11;19.30;99.90
22114;DHT22;11223;49.968;9.062;2022-09-12T17:14:37;19.20;99.90
22114;DHT22;11223;49.968;9.062;2022-09-12T17:17:03;19.10;99.90
22114;DHT22;11223;49.968;9.062;2022-09-12T17:19:28;19.10;99.90
22114;DHT22;11223;49.968;9.062;2022-09-12T17:21:55;19.00;99.90
22114;DHT22;11223;49.968;9.062;2022-09-12T17:24:22;18.90;99.90
22114;DHT22;11223;49.968;9.062;2022-09-12T17:26:48;18.80;99.90
22114;DHT22;11223;49.968;9.062;2022-09-12T17:29:14;18.80;99.90
22114;DHT22;11223;49.968;9.062;2022-09-12T17:31:41;18.70;99.90
22114;DHT22;11223;49.968;9.062;2022-09-12T17:34:08;18.60;99.90
22114;DHT22;11223;49.968;9.062;2022-09-12T17:36:33;18.60;99.90
22114;DHT22;11223;49.968;9.062;2022-09-12T17:39:01;18.50;99.90
22114;DHT22;11223;49.968;9.062;2022-09-12T17:41:28;18.40;99.90
22114;DHT22;11223;49.968;9.062;2022-09-12T17:43:57;18.40;99.90
22114;DHT22;11223;49.968;9.062;2022-09-12T17:46:26;18.30;99.90
22114;DHT22;11223;49.968;9.062;2022-09-12T17:48:55;18.20;99.90
22114;DHT22;11223;49.968;9.062;2022-09-12T17:51:23;18.20;99.90
22114;DHT22;11223;49.968;9.062;2022-09-12T17:53:55;18.10;99.90
22114;DHT22;11223;49.968;9.062;2022-09-12T17:56:21;18.00;99.90
22114;DHT22;11223;49.968;9.062;2022-09-12T17:58:47;18.00;99.90
22114;DHT22;11223;49.968;9.062;2022-09-12T18:01:13;17.90;99.90
22114;DHT22;11223;49.968;9.062;2022-09-12T18:03:58;17.80;99.90
22114;DHT22;11223;49.968;9.062;2022-09-12T18:06:28;17.80;99.90
22114;DHT22;11223;49.968;9.062;2022-09-12T18:08:57;17.70;99.90
22114;DHT22;11223;49.968;9.062;2022-09-12T18:11:23;17.60;99.90
22114;DHT22;11223;49.968;9.062;2022-09-12T18:13:49;17.60;99.90